PWSweather.com
Personal Weather Stations
Station Observations
HARSTAD1
Kanebogen, HarstadNO 9411

KanebogenHarstadNO 9411

Lat: 68.7731054, Lon: 16.5496315

Elevation: 213

Station Type: Netatmo Weather Station

http://oddne.net/met/

Latest ConditionsUpdated 8:41:46 AM GMT+01:01 Monday, May 20, 2019
Currently Today's Max Today's Min Today's Average
Temperature 61.9°F16.6°C 61.9°F16.6°C 49.6°F9.8°C 53.4°F11.9°C
Dew Point 48.2°F9.0°C 48.2°F9.0°C 41.5°F5.3°C 43.3°F6.3°C
Winds 2.5 mph SW4.0 kmh SW 6.8 mph -10.9 kmh - - 3.1 mph 5.0 kmh
Wind Gusts 6.2 mph10.0 kmh 11.2 mph18.0 kmh - -
Humidity 61% 74% 57% 69%
Pressure 30.39 in1029.1 mb 30.40 in1029.5 mb 30.38 in1028.8 mb -
Hour Temp Dew Point Humidity Winds Wind Gusts Pressure Precip Precip Rate Daily Precip Total
08:41 AM 61.9°F16.6°C 48.2°F9.0°C 61% 2.5 mph SW4.0 kmh SW 6.2 mph10.0 kmh 30.39 in1029.1 mb 0.00 in0.0 mm 0.00 in0.0 mm 0.00 in0.0 mm
08:31 AM 61.3°F16.3°C 46.4°F8.0°C 58% 1.9 mph ENE3.1 kmh ENE 3.7 mph6.0 kmh 30.39 in1029.1 mb 0.00 in0.0 mm 0.00 in0.0 mm 0.00 in0.0 mm
08:21 AM 61.3°F16.3°C 46.4°F8.0°C 58% 1.9 mph ENE3.1 kmh ENE 3.7 mph6.0 kmh 30.39 in1029.1 mb 0.00 in0.0 mm 0.00 in0.0 mm 0.00 in0.0 mm
08:11 AM 61.3°F16.3°C 47.7°F8.7°C 61% 4.4 mph SW7.1 kmh SW 7.5 mph12.1 kmh 30.39 in1029.1 mb 0.00 in0.0 mm 0.00 in0.0 mm 0.00 in0.0 mm
08:01 AM 61.5°F16.4°C 47.5°F8.6°C 60% 3.7 mph SW6.0 kmh SW 7.5 mph12.1 kmh 30.38 in1028.8 mb 0.00 in0.0 mm 0.00 in0.0 mm 0.00 in0.0 mm
07:51 AM 61.3°F16.3°C 45.9°F7.7°C 57% 4.4 mph WSW7.1 kmh WSW 9.3 mph15.0 kmh 30.38 in1028.8 mb 0.00 in0.0 mm 0.00 in0.0 mm 0.00 in0.0 mm
07:41 AM 60.6°F15.9°C 45.7°F7.6°C 58% 2.5 mph N4.0 kmh N 5.0 mph8.0 kmh 30.38 in1028.8 mb 0.00 in0.0 mm 0.00 in0.0 mm 0.00 in0.0 mm
07:31 AM 60.6°F15.9°C 45.7°F7.6°C 58% 2.5 mph N4.0 kmh N 5.0 mph8.0 kmh 30.38 in1028.8 mb 0.00 in0.0 mm 0.00 in0.0 mm 0.00 in0.0 mm
07:21 AM 59.7°F15.4°C 46.2°F7.9°C 61% 5.6 mph WSW9.0 kmh WSW 8.1 mph13.0 kmh 30.38 in1028.8 mb 0.00 in0.0 mm 0.00 in0.0 mm 0.00 in0.0 mm
07:11 AM 58.8°F14.9°C 45.3°F7.4°C 61% 3.1 mph NW5.0 kmh NW 6.2 mph10.0 kmh 30.39 in1029.1 mb 0.00 in0.0 mm 0.00 in0.0 mm 0.00 in0.0 mm
07:01 AM 58.8°F14.9°C 45.3°F7.4°C 61% 3.1 mph NW5.0 kmh NW 6.2 mph10.0 kmh 30.39 in1029.1 mb 0.00 in0.0 mm 0.00 in0.0 mm 0.00 in0.0 mm
06:51 AM 57.4°F14.1°C 45.7°F7.6°C 65% 4.4 mph WSW7.1 kmh WSW 7.5 mph12.1 kmh 30.39 in1029.1 mb 0.00 in0.0 mm 0.00 in0.0 mm 0.00 in0.0 mm
06:41 AM 57.4°F14.1°C 45.7°F7.6°C 65% 4.4 mph WSW7.1 kmh WSW 7.5 mph12.1 kmh 30.39 in1029.1 mb 0.00 in0.0 mm 0.00 in0.0 mm 0.00 in0.0 mm
06:32 AM 56.3°F13.5°C 45.0°F7.2°C 66% 1.9 mph NNW3.1 kmh NNW 3.7 mph6.0 kmh 30.39 in1029.1 mb 0.00 in0.0 mm 0.00 in0.0 mm 0.00 in0.0 mm
06:21 AM 55.8°F13.2°C 44.4°F6.9°C 66% 1.9 mph W3.1 kmh W 3.7 mph6.0 kmh 30.39 in1029.1 mb 0.00 in0.0 mm 0.00 in0.0 mm 0.00 in0.0 mm
06:11 AM 55.0°F12.8°C 44.2°F6.8°C 67% 2.5 mph NW4.0 kmh NW 5.0 mph8.0 kmh 30.39 in1029.1 mb 0.00 in0.0 mm 0.00 in0.0 mm 0.00 in0.0 mm
06:01 AM 53.8°F12.1°C 43.3°F6.3°C 68% 3.1 mph NW5.0 kmh NW 6.2 mph10.0 kmh 30.38 in1028.8 mb 0.00 in0.0 mm 0.00 in0.0 mm 0.00 in0.0 mm
05:51 AM 53.8°F12.1°C 43.3°F6.3°C 68% 3.1 mph NW5.0 kmh NW 6.2 mph10.0 kmh 30.38 in1028.8 mb 0.00 in0.0 mm 0.00 in0.0 mm 0.00 in0.0 mm
05:41 AM 53.8°F12.1°C 43.7°F6.5°C 69% 3.7 mph N6.0 kmh N 8.1 mph13.0 kmh 30.38 in1028.8 mb 0.00 in0.0 mm 0.00 in0.0 mm 0.00 in0.0 mm
05:32 AM 53.8°F12.1°C 43.7°F6.5°C 69% 3.7 mph N6.0 kmh N 8.1 mph13.0 kmh 30.38 in1028.8 mb 0.00 in0.0 mm 0.00 in0.0 mm 0.00 in0.0 mm
05:24 AM 53.1°F11.7°C 43.0°F6.1°C 69% 4.4 mph WNW7.1 kmh WNW 7.5 mph12.1 kmh 30.38 in1028.8 mb 0.00 in0.0 mm 0.00 in0.0 mm 0.00 in0.0 mm
05:11 AM 52.7°F11.5°C 43.2°F6.2°C 70% 5.6 mph WSW9.0 kmh WSW 10.6 mph17.1 kmh 30.38 in1028.8 mb 0.00 in0.0 mm 0.00 in0.0 mm 0.00 in0.0 mm
05:01 AM 52.7°F11.5°C 43.2°F6.2°C 70% 5.6 mph WSW9.0 kmh WSW 10.6 mph17.1 kmh 30.38 in1028.8 mb 0.00 in0.0 mm 0.00 in0.0 mm 0.00 in0.0 mm
04:55 AM 52.3°F11.3°C 43.2°F6.2°C 71% 5.6 mph WSW9.0 kmh WSW 9.3 mph15.0 kmh 30.38 in1028.8 mb 0.00 in0.0 mm 0.00 in0.0 mm 0.00 in0.0 mm
04:45 AM 52.0°F11.1°C 42.8°F6.0°C 71% 5.6 mph WSW9.0 kmh WSW 10.6 mph17.1 kmh 30.38 in1028.8 mb 0.00 in0.0 mm 0.00 in0.0 mm 0.00 in0.0 mm
04:33 AM 51.6°F10.9°C 42.8°F6.0°C 72% 6.8 mph WSW10.9 kmh WSW 9.9 mph15.9 kmh 30.38 in1028.8 mb 0.00 in0.0 mm 0.00 in0.0 mm 0.00 in0.0 mm
04:25 AM 51.3°F10.7°C 42.8°F6.0°C 73% 6.8 mph SW10.9 kmh SW 11.2 mph18.0 kmh 30.38 in1028.8 mb 0.00 in0.0 mm 0.00 in0.0 mm 0.00 in0.0 mm
04:16 AM 50.9°F10.5°C 42.4°F5.8°C 73% 6.2 mph WSW10.0 kmh WSW 9.3 mph15.0 kmh 30.38 in1028.8 mb 0.00 in0.0 mm 0.00 in0.0 mm 0.00 in0.0 mm
04:04 AM 50.5°F10.3°C 42.1°F5.6°C 73% 1.9 mph WSW3.1 kmh WSW 3.7 mph6.0 kmh 30.38 in1028.8 mb 0.00 in0.0 mm 0.00 in0.0 mm 0.00 in0.0 mm
03:53 AM 50.4°F10.2°C 41.9°F5.5°C 73% 2.5 mph W4.0 kmh W 3.7 mph6.0 kmh 30.38 in1028.8 mb 0.00 in0.0 mm 0.00 in0.0 mm 0.00 in0.0 mm
03:43 AM 50.0°F10.0°C 41.9°F5.5°C 74% 2.5 mph W4.0 kmh W 4.4 mph7.1 kmh 30.38 in1028.8 mb 0.00 in0.0 mm 0.00 in0.0 mm 0.00 in0.0 mm
03:34 AM 49.8°F9.9°C 41.7°F5.4°C 74% 1.9 mph W3.1 kmh W 4.4 mph7.1 kmh 30.38 in1028.8 mb 0.00 in0.0 mm 0.00 in0.0 mm 0.00 in0.0 mm
03:22 AM 49.8°F9.9°C 41.7°F5.4°C 74% 2.5 mph WNW4.0 kmh WNW 5.0 mph8.0 kmh 30.38 in1028.8 mb 0.00 in0.0 mm 0.00 in0.0 mm 0.00 in0.0 mm
03:13 AM 49.6°F9.8°C 41.5°F5.3°C 74% 1.9 mph NW3.1 kmh NW 4.4 mph7.1 kmh 30.38 in1028.8 mb 0.00 in0.0 mm 0.00 in0.0 mm 0.00 in0.0 mm
03:06 AM 49.6°F9.8°C 41.5°F5.3°C 74% 1.9 mph WNW3.1 kmh WNW 3.7 mph6.0 kmh 30.38 in1028.8 mb 0.00 in0.0 mm 0.00 in0.0 mm 0.00 in0.0 mm
02:54 AM 49.8°F9.9°C 41.7°F5.4°C 74% 1.9 mph WNW3.1 kmh WNW 3.7 mph6.0 kmh 30.38 in1028.8 mb 0.00 in0.0 mm 0.00 in0.0 mm 0.00 in0.0 mm
02:43 AM 49.8°F9.9°C 41.7°F5.4°C 74% 1.9 mph WNW3.1 kmh WNW 5.6 mph9.0 kmh 30.38 in1028.8 mb 0.00 in0.0 mm 0.00 in0.0 mm 0.00 in0.0 mm
02:36 AM 49.8°F9.9°C 41.7°F5.4°C 74% 1.9 mph W3.1 kmh W 4.4 mph7.1 kmh 30.38 in1028.8 mb 0.00 in0.0 mm 0.00 in0.0 mm 0.00 in0.0 mm
02:22 AM 49.8°F9.9°C 41.7°F5.4°C 74% 3.7 mph W6.0 kmh W 6.8 mph10.9 kmh 30.38 in1028.8 mb 0.00 in0.0 mm 0.00 in0.0 mm 0.00 in0.0 mm
02:15 AM 49.6°F9.8°C 41.5°F5.3°C 74% 2.5 mph WNW4.0 kmh WNW 5.0 mph8.0 kmh 30.38 in1028.8 mb 0.00 in0.0 mm 0.00 in0.0 mm 0.00 in0.0 mm
02:05 AM 49.6°F9.8°C 41.5°F5.3°C 74% 1.2 mph WNW1.9 kmh WNW 2.5 mph4.0 kmh 30.38 in1028.8 mb 0.00 in0.0 mm 0.00 in0.0 mm 0.00 in0.0 mm
01:54 AM 49.6°F9.8°C 41.5°F5.3°C 74% 1.9 mph WNW3.1 kmh WNW 3.7 mph6.0 kmh 30.38 in1028.8 mb 0.00 in0.0 mm 0.00 in0.0 mm 0.00 in0.0 mm
01:46 AM 49.6°F9.8°C 41.5°F5.3°C 74% 2.5 mph WNW4.0 kmh WNW 5.0 mph8.0 kmh 30.39 in1029.1 mb 0.00 in0.0 mm 0.00 in0.0 mm 0.00 in0.0 mm
01:33 AM 49.6°F9.8°C 41.5°F5.3°C 74% 2.5 mph WNW4.0 kmh WNW 4.4 mph7.1 kmh 30.39 in1029.1 mb 0.00 in0.0 mm 0.00 in0.0 mm 0.00 in0.0 mm
01:25 AM 49.6°F9.8°C 41.5°F5.3°C 74% 2.5 mph WNW4.0 kmh WNW 4.4 mph7.1 kmh 30.39 in1029.1 mb 0.00 in0.0 mm 0.00 in0.0 mm 0.00 in0.0 mm
01:12 AM 49.6°F9.8°C 41.5°F5.3°C 74% 1.9 mph WNW3.1 kmh WNW 4.4 mph7.1 kmh 30.39 in1029.1 mb 0.00 in0.0 mm 0.00 in0.0 mm 0.00 in0.0 mm
01:05 AM 49.8°F9.9°C 41.7°F5.4°C 74% 3.1 mph W5.0 kmh W 5.6 mph9.0 kmh 30.39 in1029.1 mb 0.00 in0.0 mm 0.00 in0.0 mm 0.00 in0.0 mm
12:56 AM 50.0°F10.0°C 41.5°F5.3°C 73% 2.5 mph W4.0 kmh W 5.0 mph8.0 kmh 30.39 in1029.1 mb 0.00 in0.0 mm 0.00 in0.0 mm 0.00 in0.0 mm
12:41 AM 50.2°F10.1°C 41.7°F5.4°C 73% 1.9 mph WNW3.1 kmh WNW 3.7 mph6.0 kmh 30.40 in1029.5 mb 0.00 in0.0 mm 0.00 in0.0 mm 0.00 in0.0 mm
12:36 AM 50.4°F10.2°C 41.9°F5.5°C 73% 2.5 mph W4.0 kmh W 3.7 mph6.0 kmh 30.40 in1029.5 mb 0.00 in0.0 mm 0.00 in0.0 mm 0.00 in0.0 mm
12:23 AM 50.4°F10.2°C 41.9°F5.5°C 73% 2.5 mph W4.0 kmh W 4.4 mph7.1 kmh 30.40 in1029.5 mb 0.00 in0.0 mm 0.00 in0.0 mm 0.00 in0.0 mm
12:16 AM 50.2°F10.1°C 42.1°F5.6°C 74% 2.5 mph W4.0 kmh W 3.1 mph5.0 kmh 30.40 in1029.5 mb 0.00 in0.0 mm 0.00 in0.0 mm 0.00 in0.0 mm
12:02 AM 50.4°F10.2°C 41.9°F5.5°C 73% 1.9 mph WNW3.1 kmh WNW 3.7 mph6.0 kmh 30.40 in1029.5 mb 0.00 in0.0 mm 0.00 in0.0 mm 0.00 in0.0 mm